sensor_id;sensor_type;location;lat;lon;timestamp;temperature;humidity
25170;DHT22;13129;48.012;10.352;2023-08-06T03:31:04;12.40;99.90
25170;DHT22;13129;48.012;10.352;2023-08-06T03:33:30;12.40;99.90
25170;DHT22;13129;48.012;10.352;2023-08-06T03:35:56;12.50;99.90
25170;DHT22;13129;48.012;10.352;2023-08-06T03:38:25;12.60;99.90
25170;DHT22;13129;48.012;10.352;2023-08-06T03:41:03;12.60;99.90
25170;DHT22;13129;48.012;10.352;2023-08-06T03:43:28;12.60;99.90
25170;DHT22;13129;48.012;10.352;2023-08-06T03:45:54;12.50;99.90
25170;DHT22;13129;48.012;10.352;2023-08-06T03:48:19;12.40;99.90
25170;DHT22;13129;48.012;10.352;2023-08-06T03:50:46;12.40;99.90
25170;DHT22;13129;48.012;10.352;2023-08-06T03:53:12;12.30;99.90
25170;DHT22;13129;48.012;10.352;2023-08-06T03:55:37;12.40;99.90
25170;DHT22;13129;48.012;10.352;2023-08-06T03:58:03;12.40;99.90
25170;DHT22;13129;48.012;10.352;2023-08-06T04:00:29;12.50;99.90
25170;DHT22;13129;48.012;10.352;2023-08-06T04:02:54;12.50;99.90
25170;DHT22;13129;48.012;10.352;2023-08-06T04:05:20;12.50;99.90
25170;DHT22;13129;48.012;10.352;2023-08-06T04:07:46;12.60;99.90
25170;DHT22;13129;48.012;10.352;2023-08-06T04:10:11;12.60;99.90
25170;DHT22;13129;48.012;10.352;2023-08-06T04:12:37;12.60;99.90
25170;DHT22;13129;48.012;10.352;2023-08-06T04:15:05;12.70;99.90
25170;DHT22;13129;48.012;10.352;2023-08-06T04:17:31;12.70;99.90
25170;DHT22;13129;48.012;10.352;2023-08-06T04:19:56;12.70;99.90
25170;DHT22;13129;48.012;10.352;2023-08-06T04:22:25;12.80;99.90
25170;DHT22;13129;48.012;10.352;2023-08-06T04:24:57;12.80;99.90
25170;DHT22;13129;48.012;10.352;2023-08-06T04:27:25;12.80;99.90
25170;DHT22;13129;48.012;10.352;2023-08-06T04:29:51;12.80;99.90
25170;DHT22;13129;48.012;10.352;2023-08-06T04:32:20;12.80;99.90
25170;DHT22;13129;48.012;10.352;2023-08-06T04:34:52;12.70;99.90
25170;DHT22;13129;48.012;10.352;2023-08-06T04:37:17;12.80;99.90
25170;DHT22;13129;48.012;10.352;2023-08-06T04:42:47;12.90;99.90
25170;DHT22;13129;48.012;10.352;2023-08-06T04:45:50;12.90;99.90
25170;DHT22;13129;48.012;10.352;2023-08-06T04:48:56;13.00;99.90
25170;DHT22;13129;48.012;10.352;2023-08-06T04:51:25;13.10;99.90
25170;DHT22;13129;48.012;10.352;2023-08-06T05:02:20;13.40;99.90
25170;DHT22;13129;48.012;10.352;2023-08-06T05:35:54;13.90;99.90
25170;DHT22;13129;48.012;10.352;2023-08-06T06:38:13;16.10;99.90
25170;DHT22;13129;48.012;10.352;2023-08-06T06:41:03;17.00;99.90
25170;DHT22;13129;48.012;10.352;2023-08-06T06:43:59;16.90;99.90
25170;DHT22;13129;48.012;10.352;2023-08-06T06:53:38;16.20;99.90
25170;DHT22;13129;48.012;10.352;2023-08-06T06:56:04;17.30;99.90
25170;DHT22;13129;48.012;10.352;2023-08-06T06:58:31;18.50;99.90
25170;DHT22;13129;48.012;10.352;2023-08-06T07:00:56;20.30;99.90
25170;DHT22;13129;48.012;10.352;2023-08-06T07:03:22;21.10;99.90
25170;DHT22;13129;48.012;10.352;2023-08-06T07:05:50;21.40;99.90
25170;DHT22;13129;48.012;10.352;2023-08-06T07:08:16;21.90;99.90
25170;DHT22;13129;48.012;10.352;2023-08-06T07:10:42;23.50;99.90
25170;DHT22;13129;48.012;10.352;2023-08-06T07:13:09;24.20;99.90
25170;DHT22;13129;48.012;10.352;2023-08-06T07:15:34;23.70;99.90
25170;DHT22;13129;48.012;10.352;2023-08-06T07:18:01;22.90;99.80
25170;DHT22;13129;48.012;10.352;2023-08-06T07:20:26;24.00;99.90
25170;DHT22;13129;48.012;10.352;2023-08-06T07:22:54;25.40;96.80
25170;DHT22;13129;48.012;10.352;2023-08-06T07:25:20;26.80;93.00
25170;DHT22;13129;48.012;10.352;2023-08-06T07:27:45;28.50;89.70
25170;DHT22;13129;48.012;10.352;2023-08-06T07:30:11;29.90;83.80
25170;DHT22;13129;48.012;10.352;2023-08-06T07:32:36;30.80;76.50
25170;DHT22;13129;48.012;10.352;2023-08-06T07:35:02;29.50;71.40
25170;DHT22;13129;48.012;10.352;2023-08-06T07:37:28;28.90;70.00
25170;DHT22;13129;48.012;10.352;2023-08-06T07:39:54;26.70;72.60
25170;DHT22;13129;48.012;10.352;2023-08-06T07:42:20;24.60;77.70
25170;DHT22;13129;48.012;10.352;2023-08-06T07:44:53;22.80;82.90
25170;DHT22;13129;48.012;10.352;2023-08-06T07:47:19;21.30;86.40
25170;DHT22;13129;48.012;10.352;2023-08-06T07:49:45;20.80;90.90
25170;DHT22;13129;48.012;10.352;2023-08-06T07:52:10;21.00;90.60
25170;DHT22;13129;48.012;10.352;2023-08-06T07:54:36;20.60;90.80
25170;DHT22;13129;48.012;10.352;2023-08-06T07:57:02;20.40;92.00
25170;DHT22;13129;48.012;10.352;2023-08-06T07:59:27;21.50;92.40
25170;DHT22;13129;48.012;10.352;2023-08-06T08:01:53;22.70;89.70
25170;DHT22;13129;48.012;10.352;2023-08-06T08:04:18;24.10;87.60
25170;DHT22;13129;48.012;10.352;2023-08-06T08:06:44;24.20;81.60
25170;DHT22;13129;48.012;10.352;2023-08-06T08:09:09;22.90;83.30
25170;DHT22;13129;48.012;10.352;2023-08-06T08:11:35;21.70;86.40
25170;DHT22;13129;48.012;10.352;2023-08-06T08:14:01;20.40;90.00
25170;DHT22;13129;48.012;10.352;2023-08-06T08:16:26;19.70;91.60
25170;DHT22;13129;48.012;10.352;2023-08-06T08:18:52;19.30;92.60
25170;DHT22;13129;48.012;10.352;2023-08-06T08:21:17;19.10;93.70
25170;DHT22;13129;48.012;10.352;2023-08-06T08:23:43;18.60;94.10
25170;DHT22;13129;48.012;10.352;2023-08-06T08:26:09;18.00;95.00
25170;DHT22;13129;48.012;10.352;2023-08-06T08:28:34;17.20;97.10
25170;DHT22;13129;48.012;10.352;2023-08-06T08:31:00;16.60;98.90
25170;DHT22;13129;48.012;10.352;2023-08-06T08:33:26;16.40;99.90
25170;DHT22;13129;48.012;10.352;2023-08-06T08:35:55;16.10;99.90
25170;DHT22;13129;48.012;10.352;2023-08-06T08:41:42;15.80;99.90
25170;DHT22;13129;48.012;10.352;2023-08-06T08:44:16;15.60;99.90
25170;DHT22;13129;48.012;10.352;2023-08-06T08:47:03;15.70;99.90
25170;DHT22;13129;48.012;10.352;2023-08-06T08:56:14;17.00;99.90
25170;DHT22;13129;48.012;10.352;2023-08-06T09:00:07;18.30;99.90
25170;DHT22;13129;48.012;10.352;2023-08-06T09:02:33;19.10;99.90
25170;DHT22;13129;48.012;10.352;2023-08-06T09:05:00;18.70;99.90
25170;DHT22;13129;48.012;10.352;2023-08-06T09:07:32;18.20;99.90
25170;DHT22;13129;48.012;10.352;2023-08-06T09:10:04;17.60;99.90
25170;DHT22;13129;48.012;10.352;2023-08-06T09:12:34;17.00;99.90
25170;DHT22;13129;48.012;10.352;2023-08-06T09:14:59;16.80;99.90
25170;DHT22;13129;48.012;10.352;2023-08-06T09:17:25;16.70;99.90
25170;DHT22;13129;48.012;10.352;2023-08-06T09:19:51;16.80;99.90
25170;DHT22;13129;48.012;10.352;2023-08-06T09:22:16;16.90;99.90
25170;DHT22;13129;48.012;10.352;2023-08-06T09:24:43;16.90;99.90
25170;DHT22;13129;48.012;10.352;2023-08-06T09:27:15;16.90;99.90
25170;DHT22;13129;48.012;10.352;2023-08-06T09:29:44;17.10;99.90
25170;DHT22;13129;48.012;10.352;2023-08-06T09:32:11;17.30;99.90
25170;DHT22;13129;48.012;10.352;2023-08-06T09:34:40;17.50;99.90
25170;DHT22;13129;48.012;10.352;2023-08-06T09:37:07;17.30;99.90
25170;DHT22;13129;48.012;10.352;2023-08-06T09:39:33;17.10;99.90
25170;DHT22;13129;48.012;10.352;2023-08-06T09:42:01;16.80;99.90
25170;DHT22;13129;48.012;10.352;2023-08-06T09:44:28;16.60;99.90
25170;DHT22;13129;48.012;10.352;2023-08-06T09:46:56;16.70;99.90
25170;DHT22;13129;48.012;10.352;2023-08-06T09:51:57;17.30;99.90
25170;DHT22;13129;48.012;10.352;2023-08-06T09:54:25;17.40;99.90
25170;DHT22;13129;48.012;10.352;2023-08-06T09:56:52;17.20;99.90
25170;DHT22;13129;48.012;10.352;2023-08-06T09:59:19;16.80;99.90
25170;DHT22;13129;48.012;10.352;2023-08-06T10:01:45;16.40;99.90
25170;DHT22;13129;48.012;10.352;2023-08-06T10:04:13;16.10;99.90
25170;DHT22;13129;48.012;10.352;2023-08-06T10:06:42;15.60;99.90
25170;DHT22;13129;48.012;10.352;2023-08-06T10:09:08;15.30;99.90
25170;DHT22;13129;48.012;10.352;2023-08-06T10:11:36;15.10;99.90
25170;DHT22;13129;48.012;10.352;2023-08-06T10:14:09;14.90;99.90
25170;DHT22;13129;48.012;10.352;2023-08-06T10:16:36;14.80;99.90
25170;DHT22;13129;48.012;10.352;2023-08-06T10:19:08;14.90;99.90
25170;DHT22;13129;48.012;10.352;2023-08-06T10:21:34;14.90;99.90
25170;DHT22;13129;48.012;10.352;2023-08-06T10:24:00;14.90;99.90
25170;DHT22;13129;48.012;10.352;2023-08-06T10:26:28;14.80;99.90
25170;DHT22;13129;48.012;10.352;2023-08-06T10:28:53;14.80;99.90
25170;DHT22;13129;48.012;10.352;2023-08-06T10:31:19;14.80;99.90
25170;DHT22;13129;48.012;10.352;2023-08-06T10:33:47;14.80;99.90
25170;DHT22;13129;48.012;10.352;2023-08-06T10:36:14;14.90;99.90
25170;DHT22;13129;48.012;10.352;2023-08-06T10:38:49;15.50;99.90
25170;DHT22;13129;48.012;10.352;2023-08-06T10:41:22;15.70;99.90
25170;DHT22;13129;48.012;10.352;2023-08-06T10:43:49;16.00;99.90
25170;DHT22;13129;48.012;10.352;2023-08-06T10:46:22;16.30;99.90
25170;DHT22;13129;48.012;10.352;2023-08-06T10:48:49;16.30;99.90
25170;DHT22;13129;48.012;10.352;2023-08-06T10:51:14;16.20;99.90
25170;DHT22;13129;48.012;10.352;2023-08-06T10:53:44;16.00;99.90
25170;DHT22;13129;48.012;10.352;2023-08-06T10:56:18;15.70;99.90
25170;DHT22;13129;48.012;10.352;2023-08-06T10:58:47;15.60;99.90
25170;DHT22;13129;48.012;10.352;2023-08-06T11:01:13;15.60;99.90
25170;DHT22;13129;48.012;10.352;2023-08-06T11:03:39;15.70;99.90
25170;DHT22;13129;48.012;10.352;2023-08-06T11:06:07;15.90;99.90
25170;DHT22;13129;48.012;10.352;2023-08-06T11:08:35;16.20;99.90
25170;DHT22;13129;48.012;10.352;2023-08-06T11:11:08;16.70;99.90
25170;DHT22;13129;48.012;10.352;2023-08-06T11:13:36;17.30;99.90
25170;DHT22;13129;48.012;10.352;2023-08-06T11:16:02;17.60;99.90
25170;DHT22;13129;48.012;10.352;2023-08-06T11:18:28;17.80;99.90
25170;DHT22;13129;48.012;10.352;2023-08-06T11:20:54;18.50;99.90
25170;DHT22;13129;48.012;10.352;2023-08-06T11:23:20;18.80;99.90
25170;DHT22;13129;48.012;10.352;2023-08-06T11:25:45;18.70;99.90
25170;DHT22;13129;48.012;10.352;2023-08-06T11:28:12;18.90;99.90
25170;DHT22;13129;48.012;10.352;2023-08-06T11:30:38;18.70;99.90
25170;DHT22;13129;48.012;10.352;2023-08-06T11:33:06;18.80;99.90
25170;DHT22;13129;48.012;10.352;2023-08-06T11:35:34;19.00;99.90
25170;DHT22;13129;48.012;10.352;2023-08-06T11:38:00;19.00;99.90
25170;DHT22;13129;48.012;10.352;2023-08-06T11:40:26;18.90;99.90
25170;DHT22;13129;48.012;10.352;2023-08-06T11:42:52;18.80;99.90
25170;DHT22;13129;48.012;10.352;2023-08-06T11:45:22;18.50;99.90
25170;DHT22;13129;48.012;10.352;2023-08-06T11:47:51;18.20;99.90
25170;DHT22;13129;48.012;10.352;2023-08-06T11:50:27;17.70;99.90
25170;DHT22;13129;48.012;10.352;2023-08-06T11:53:02;17.30;99.90
25170;DHT22;13129;48.012;10.352;2023-08-06T11:55:28;16.90;99.90
25170;DHT22;13129;48.012;10.352;2023-08-06T11:57:54;16.50;99.90
25170;DHT22;13129;48.012;10.352;2023-08-06T12:00:23;16.10;99.90
25170;DHT22;13129;48.012;10.352;2023-08-06T12:02:49;15.60;99.90
25170;DHT22;13129;48.012;10.352;2023-08-06T12:05:18;15.20;99.90
25170;DHT22;13129;48.012;10.352;2023-08-06T12:07:51;14.80;99.90
25170;DHT22;13129;48.012;10.352;2023-08-06T12:10:17;14.50;99.90
25170;DHT22;13129;48.012;10.352;2023-08-06T12:12:45;14.40;99.90
25170;DHT22;13129;48.012;10.352;2023-08-06T12:15:11;14.20;99.90
25170;DHT22;13129;48.012;10.352;2023-08-06T12:17:37;14.10;99.90
25170;DHT22;13129;48.012;10.352;2023-08-06T12:20:04;14.10;99.90
25170;DHT22;13129;48.012;10.352;2023-08-06T12:22:30;14.00;99.90
25170;DHT22;13129;48.012;10.352;2023-08-06T12:25:04;14.10;99.90
25170;DHT22;13129;48.012;10.352;2023-08-06T12:27:36;14.10;99.90
25170;DHT22;13129;48.012;10.352;2023-08-06T12:30:03;14.00;99.90
25170;DHT22;13129;48.012;10.352;2023-08-06T12:32:29;13.90;99.90
25170;DHT22;13129;48.012;10.352;2023-08-06T12:34:54;14.00;99.90
25170;DHT22;13129;48.012;10.352;2023-08-06T12:37:20;13.90;99.90
25170;DHT22;13129;48.012;10.352;2023-08-06T12:39:45;14.00;99.90
25170;DHT22;13129;48.012;10.352;2023-08-06T12:42:11;14.10;99.90
25170;DHT22;13129;48.012;10.352;2023-08-06T12:44:37;14.20;99.90
25170;DHT22;13129;48.012;10.352;2023-08-06T12:47:02;14.30;99.90
25170;DHT22;13129;48.012;10.352;2023-08-06T12:49:28;14.30;99.90
25170;DHT22;13129;48.012;10.352;2023-08-06T12:51:54;14.60;99.90
25170;DHT22;13129;48.012;10.352;2023-08-06T12:54:22;14.80;99.90
25170;DHT22;13129;48.012;10.352;2023-08-06T12:56:48;15.10;99.90
25170;DHT22;13129;48.012;10.352;2023-08-06T12:59:15;15.30;99.90
25170;DHT22;13129;48.012;10.352;2023-08-06T13:01:41;15.30;99.90
25170;DHT22;13129;48.012;10.352;2023-08-06T13:04:07;15.20;99.90
25170;DHT22;13129;48.012;10.352;2023-08-06T13:06:33;15.10;99.90
25170;DHT22;13129;48.012;10.352;2023-08-06T13:09:11;15.00;99.90
25170;DHT22;13129;48.012;10.352;2023-08-06T13:11:38;15.00;99.90
25170;DHT22;13129;48.012;10.352;2023-08-06T13:14:06;15.10;99.90
25170;DHT22;13129;48.012;10.352;2023-08-06T13:16:33;15.10;99.90
25170;DHT22;13129;48.012;10.352;2023-08-06T13:18:59;15.00;99.90
25170;DHT22;13129;48.012;10.352;2023-08-06T13:21:30;15.10;99.90
25170;DHT22;13129;48.012;10.352;2023-08-06T13:23:56;15.20;99.90
25170;DHT22;13129;48.012;10.352;2023-08-06T13:26:21;15.40;99.90
25170;DHT22;13129;48.012;10.352;2023-08-06T13:28:47;15.70;99.90
25170;DHT22;13129;48.012;10.352;2023-08-06T13:31:14;16.10;99.90
25170;DHT22;13129;48.012;10.352;2023-08-06T13:33:40;16.40;99.90
25170;DHT22;13129;48.012;10.352;2023-08-06T13:36:06;16.30;99.90
25170;DHT22;13129;48.012;10.352;2023-08-06T13:38:31;16.20;99.90
25170;DHT22;13129;48.012;10.352;2023-08-06T13:40:57;16.20;99.90
25170;DHT22;13129;48.012;10.352;2023-08-06T13:43:24;16.00;99.90
25170;DHT22;13129;48.012;10.352;2023-08-06T13:45:49;16.10;99.90
25170;DHT22;13129;48.012;10.352;2023-08-06T13:48:15;16.20;99.90
25170;DHT22;13129;48.012;10.352;2023-08-06T13:50:40;16.10;99.90
25170;DHT22;13129;48.012;10.352;2023-08-06T13:53:06;16.10;99.90
25170;DHT22;13129;48.012;10.352;2023-08-06T13:55:31;16.20;99.90
25170;DHT22;13129;48.012;10.352;2023-08-06T13:57:57;16.20;99.90
25170;DHT22;13129;48.012;10.352;2023-08-06T14:00:23;16.10;99.90
25170;DHT22;13129;48.012;10.352;2023-08-06T14:02:48;15.90;99.90
25170;DHT22;13129;48.012;10.352;2023-08-06T14:05:14;15.80;99.90
25170;DHT22;13129;48.012;10.352;2023-08-06T14:07:39;15.70;99.90
25170;DHT22;13129;48.012;10.352;2023-08-06T14:10:06;15.60;99.90
25170;DHT22;13129;48.012;10.352;2023-08-06T14:12:31;15.40;99.90
25170;DHT22;13129;48.012;10.352;2023-08-06T14:14:57;15.40;99.90
25170;DHT22;13129;48.012;10.352;2023-08-06T14:17:23;15.40;99.90
25170;DHT22;13129;48.012;10.352;2023-08-06T14:19:48;15.30;99.90
25170;DHT22;13129;48.012;10.352;2023-08-06T14:22:14;15.40;99.90
25170;DHT22;13129;48.012;10.352;2023-08-06T14:24:39;15.50;99.90
25170;DHT22;13129;48.012;10.352;2023-08-06T14:27:06;15.70;99.90
25170;DHT22;13129;48.012;10.352;2023-08-06T14:29:31;15.60;99.90
25170;DHT22;13129;48.012;10.352;2023-08-06T14:31:57;15.70;99.90
25170;DHT22;13129;48.012;10.352;2023-08-06T14:34:23;15.80;99.90
25170;DHT22;13129;48.012;10.352;2023-08-06T14:36:48;15.80;99.90
25170;DHT22;13129;48.012;10.352;2023-08-06T14:39:14;15.80;99.90
25170;DHT22;13129;48.012;10.352;2023-08-06T14:41:39;15.70;99.90
25170;DHT22;13129;48.012;10.352;2023-08-06T14:44:05;15.70;99.90
25170;DHT22;13129;48.012;10.352;2023-08-06T14:46:32;15.50;99.90
25170;DHT22;13129;48.012;10.352;2023-08-06T14:48:58;15.30;99.90
25170;DHT22;13129;48.012;10.352;2023-08-06T14:51:24;15.00;99.90
25170;DHT22;13129;48.012;10.352;2023-08-06T14:53:49;14.80;99.90
25170;DHT22;13129;48.012;10.352;2023-08-06T14:56:15;14.60;99.90
25170;DHT22;13129;48.012;10.352;2023-08-06T14:58:41;14.40;99.90
25170;DHT22;13129;48.012;10.352;2023-08-06T15:01:07;14.20;99.90
25170;DHT22;13129;48.012;10.352;2023-08-06T15:03:33;14.00;99.90
25170;DHT22;13129;48.012;10.352;2023-08-06T15:05:59;14.00;99.90
25170;DHT22;13129;48.012;10.352;2023-08-06T15:08:24;14.00;99.90
25170;DHT22;13129;48.012;10.352;2023-08-06T15:50:09;14.30;99.90
25170;DHT22;13129;48.012;10.352;2023-08-06T15:52:35;14.30;99.90
25170;DHT22;13129;48.012;10.352;2023-08-06T15:55:04;14.20;99.90
25170;DHT22;13129;48.012;10.352;2023-08-06T15:57:34;14.20;99.90
25170;DHT22;13129;48.012;10.352;2023-08-06T16:00:00;14.30;99.90
25170;DHT22;13129;48.012;10.352;2023-08-06T16:02:26;14.40;99.90
25170;DHT22;13129;48.012;10.352;2023-08-06T16:04:53;14.30;99.90
25170;DHT22;13129;48.012;10.352;2023-08-06T16:07:20;14.30;99.90
25170;DHT22;13129;48.012;10.352;2023-08-06T16:09:45;14.10;99.90
25170;DHT22;13129;48.012;10.352;2023-08-06T16:12:11;14.10;99.90
25170;DHT22;13129;48.012;10.352;2023-08-06T16:14:36;13.90;99.90
25170;DHT22;13129;48.012;10.352;2023-08-06T16:17:02;14.00;99.90
25170;DHT22;13129;48.012;10.352;2023-08-06T16:19:28;14.10;99.90
25170;DHT22;13129;48.012;10.352;2023-08-06T16:21:54;14.20;99.90
25170;DHT22;13129;48.012;10.352;2023-08-06T16:24:19;14.20;99.90
25170;DHT22;13129;48.012;10.352;2023-08-06T16:26:46;14.20;99.90
25170;DHT22;13129;48.012;10.352;2023-08-06T16:29:11;14.10;99.90
25170;DHT22;13129;48.012;10.352;2023-08-06T16:31:37;14.10;99.90
25170;DHT22;13129;48.012;10.352;2023-08-06T16:34:02;14.30;99.90
25170;DHT22;13129;48.012;10.352;2023-08-06T16:36:28;14.20;99.90
25170;DHT22;13129;48.012;10.352;2023-08-06T16:38:54;14.20;99.90
25170;DHT22;13129;48.012;10.352;2023-08-06T16:41:22;14.10;99.90
25170;DHT22;13129;48.012;10.352;2023-08-06T16:43:47;14.10;99.90
25170;DHT22;13129;48.012;10.352;2023-08-06T16:46:13;13.90;99.90
25170;DHT22;13129;48.012;10.352;2023-08-06T16:48:38;13.80;99.90
25170;DHT22;13129;48.012;10.352;2023-08-06T16:51:04;13.70;99.90
25170;DHT22;13129;48.012;10.352;2023-08-06T16:53:30;13.80;99.90
25170;DHT22;13129;48.012;10.352;2023-08-06T16:55:56;13.70;99.90
25170;DHT22;13129;48.012;10.352;2023-08-06T16:58:25;13.60;99.90
25170;DHT22;13129;48.012;10.352;2023-08-06T17:00:51;13.60;99.90
25170;DHT22;13129;48.012;10.352;2023-08-06T17:03:19;13.60;99.90
25170;DHT22;13129;48.012;10.352;2023-08-06T17:05:45;13.70;99.90
25170;DHT22;13129;48.012;10.352;2023-08-06T17:08:11;13.60;99.90
25170;DHT22;13129;48.012;10.352;2023-08-06T17:10:36;13.60;99.90
25170;DHT22;13129;48.012;10.352;2023-08-06T17:13:04;13.50;99.90
25170;DHT22;13129;48.012;10.352;2023-08-06T17:15:30;13.40;99.90
25170;DHT22;13129;48.012;10.352;2023-08-06T17:17:56;13.50;99.90
25170;DHT22;13129;48.012;10.352;2023-08-06T17:20:22;13.50;99.90
25170;DHT22;13129;48.012;10.352;2023-08-06T17:22:47;13.30;99.90
25170;DHT22;13129;48.012;10.352;2023-08-06T17:25:13;13.30;99.90
25170;DHT22;13129;48.012;10.352;2023-08-06T17:27:39;13.30;99.90
25170;DHT22;13129;48.012;10.352;2023-08-06T17:30:06;13.10;99.90
25170;DHT22;13129;48.012;10.352;2023-08-06T17:32:31;13.00;99.90
25170;DHT22;13129;48.012;10.352;2023-08-06T17:34:57;12.90;99.90
25170;DHT22;13129;48.012;10.352;2023-08-06T17:37:23;12.80;99.90
25170;DHT22;13129;48.012;10.352;2023-08-06T17:39:48;12.70;99.90
25170;DHT22;13129;48.012;10.352;2023-08-06T17:42:14;12.50;99.90
25170;DHT22;13129;48.012;10.352;2023-08-06T17:44:40;12.40;99.90
25170;DHT22;13129;48.012;10.352;2023-08-06T17:47:06;12.30;99.90
25170;DHT22;13129;48.012;10.352;2023-08-06T17:49:32;12.20;99.90
25170;DHT22;13129;48.012;10.352;2023-08-06T17:51:57;12.10;99.90
25170;DHT22;13129;48.012;10.352;2023-08-06T17:54:23;12.10;99.90
25170;DHT22;13129;48.012;10.352;2023-08-06T17:56:50;12.00;99.90
25170;DHT22;13129;48.012;10.352;2023-08-06T17:59:15;12.20;99.90
25170;DHT22;13129;48.012;10.352;2023-08-06T18:01:41;12.10;99.90
25170;DHT22;13129;48.012;10.352;2023-08-06T18:04:06;12.20;99.90
25170;DHT22;13129;48.012;10.352;2023-08-06T18:06:32;12.30;99.90
25170;DHT22;13129;48.012;10.352;2023-08-06T18:08:57;12.20;99.90
25170;DHT22;13129;48.012;10.352;2023-08-06T18:11:23;12.20;99.90
25170;DHT22;13129;48.012;10.352;2023-08-06T18:13:48;12.30;99.90
25170;DHT22;13129;48.012;10.352;2023-08-06T18:16:14;12.20;99.90
25170;DHT22;13129;48.012;10.352;2023-08-06T18:18:39;12.30;99.90
25170;DHT22;13129;48.012;10.352;2023-08-06T18:21:05;12.30;99.90
25170;DHT22;13129;48.012;10.352;2023-08-06T18:23:31;12.30;99.90
25170;DHT22;13129;48.012;10.352;2023-08-06T18:25:56;12.20;99.90
25170;DHT22;13129;48.012;10.352;2023-08-06T18:28:24;12.20;99.90
25170;DHT22;13129;48.012;10.352;2023-08-06T18:30:51;12.20;99.90
25170;DHT22;13129;48.012;10.352;2023-08-06T18:33:17;12.10;99.90
25170;DHT22;13129;48.012;10.352;2023-08-06T18:35:42;12.10;99.90
25170;DHT22;13129;48.012;10.352;2023-08-06T18:38:08;12.00;99.90
25170;DHT22;13129;48.012;10.352;2023-08-06T18:40:34;12.00;99.90
25170;DHT22;13129;48.012;10.352;2023-08-06T18:43:00;11.90;99.90
25170;DHT22;13129;48.012;10.352;2023-08-06T18:45:25;11.90;99.90
25170;DHT22;13129;48.012;10.352;2023-08-06T18:47:51;11.90;99.90
25170;DHT22;13129;48.012;10.352;2023-08-06T18:50:17;12.00;99.90
25170;DHT22;13129;48.012;10.352;2023-08-06T18:52:43;11.70;99.90
25170;DHT22;13129;48.012;10.352;2023-08-06T18:55:09;11.70;99.90
25170;DHT22;13129;48.012;10.352;2023-08-06T18:57:35;11.60;99.90
25170;DHT22;13129;48.012;10.352;2023-08-06T19:00:01;11.60;99.90
25170;DHT22;13129;48.012;10.352;2023-08-06T19:02:27;11.50;99.90
25170;DHT22;13129;48.012;10.352;2023-08-06T19:04:56;11.40;99.90
25170;DHT22;13129;48.012;10.352;2023-08-06T19:07:23;11.40;99.90
25170;DHT22;13129;48.012;10.352;2023-08-06T19:09:49;11.40;99.90
25170;DHT22;13129;48.012;10.352;2023-08-06T19:12:14;11.30;99.90
25170;DHT22;13129;48.012;10.352;2023-08-06T19:14:43;11.40;99.90
25170;DHT22;13129;48.012;10.352;2023-08-06T19:17:09;11.40;99.90
25170;DHT22;13129;48.012;10.352;2023-08-06T19:19:34;11.30;99.90
25170;DHT22;13129;48.012;10.352;2023-08-06T19:22:00;11.30;99.90
25170;DHT22;13129;48.012;10.352;2023-08-06T19:24:26;11.20;99.90
25170;DHT22;13129;48.012;10.352;2023-08-06T19:26:52;11.20;99.90
25170;DHT22;13129;48.012;10.352;2023-08-06T19:29:17;11.10;99.90
25170;DHT22;13129;48.012;10.352;2023-08-06T19:31:43;11.00;99.90
25170;DHT22;13129;48.012;10.352;2023-08-06T19:34:09;11.00;99.90
25170;DHT22;13129;48.012;10.352;2023-08-06T19:36:34;10.90;99.90
25170;DHT22;13129;48.012;10.352;2023-08-06T19:39:00;10.90;99.90
25170;DHT22;13129;48.012;10.352;2023-08-06T19:41:25;10.90;99.90
25170;DHT22;13129;48.012;10.352;2023-08-06T19:43:51;10.80;99.90
25170;DHT22;13129;48.012;10.352;2023-08-06T19:46:17;10.80;99.90
25170;DHT22;13129;48.012;10.352;2023-08-06T19:48:42;10.70;99.90
25170;DHT22;13129;48.012;10.352;2023-08-06T19:51:08;10.70;99.90
25170;DHT22;13129;48.012;10.352;2023-08-06T19:53:34;10.60;99.90
25170;DHT22;13129;48.012;10.352;2023-08-06T19:56:01;10.60;99.90
25170;DHT22;13129;48.012;10.352;2023-08-06T19:58:28;10.70;99.90
25170;DHT22;13129;48.012;10.352;2023-08-06T20:00:54;10.60;99.90
25170;DHT22;13129;48.012;10.352;2023-08-06T20:03:24;10.60;99.90
25170;DHT22;13129;48.012;10.352;2023-08-06T20:05:50;10.70;99.90
25170;DHT22;13129;48.012;10.352;2023-08-06T20:08:19;10.60;99.90
25170;DHT22;13129;48.012;10.352;2023-08-06T20:10:48;10.60;99.90
25170;DHT22;13129;48.012;10.352;2023-08-06T20:13:15;10.60;99.90
25170;DHT22;13129;48.012;10.352;2023-08-06T20:15:42;10.60;99.90
25170;DHT22;13129;48.012;10.352;2023-08-06T20:18:08;10.70;99.90
25170;DHT22;13129;48.012;10.352;2023-08-06T20:20:37;10.80;99.90
25170;DHT22;13129;48.012;10.352;2023-08-06T20:23:03;10.80;99.90
25170;DHT22;13129;48.012;10.352;2023-08-06T20:25:29;10.90;99.90
25170;DHT22;13129;48.012;10.352;2023-08-06T20:27:54;10.80;99.90
25170;DHT22;13129;48.012;10.352;2023-08-06T20:30:20;10.90;99.90
25170;DHT22;13129;48.012;10.352;2023-08-06T20:32:46;10.90;99.90
25170;DHT22;13129;48.012;10.352;2023-08-06T20:35:11;10.90;99.90
25170;DHT22;13129;48.012;10.352;2023-08-06T20:37:37;10.90;99.90
25170;DHT22;13129;48.012;10.352;2023-08-06T20:40:03;10.90;99.90
25170;DHT22;13129;48.012;10.352;2023-08-06T20:42:29;10.90;99.90
25170;DHT22;13129;48.012;10.352;2023-08-06T20:44:54;11.00;99.90
25170;DHT22;13129;48.012;10.352;2023-08-06T20:47:20;10.90;99.90
25170;DHT22;13129;48.012;10.352;2023-08-06T20:49:45;11.00;99.90
25170;DHT22;13129;48.012;10.352;2023-08-06T20:52:11;10.90;99.90
25170;DHT22;13129;48.012;10.352;2023-08-06T20:54:36;11.00;99.90
25170;DHT22;13129;48.012;10.352;2023-08-06T20:57:02;11.00;99.90
25170;DHT22;13129;48.012;10.352;2023-08-06T20:59:28;11.00;99.90
25170;DHT22;13129;48.012;10.352;2023-08-06T21:01:54;11.00;99.90
25170;DHT22;13129;48.012;10.352;2023-08-06T21:04:22;11.10;99.90
25170;DHT22;13129;48.012;10.352;2023-08-06T21:06:47;11.00;99.90
25170;DHT22;13129;48.012;10.352;2023-08-06T21:09:13;11.00;99.90
25170;DHT22;13129;48.012;10.352;2023-08-06T21:11:38;11.10;99.90
25170;DHT22;13129;48.012;10.352;2023-08-06T21:14:04;11.10;99.90
25170;DHT22;13129;48.012;10.352;2023-08-06T21:16:29;11.10;99.90
25170;DHT22;13129;48.012;10.352;2023-08-06T21:18:55;11.10;99.90
25170;DHT22;13129;48.012;10.352;2023-08-06T21:21:20;11.10;99.90
25170;DHT22;13129;48.012;10.352;2023-08-06T21:23:46;11.20;99.90
25170;DHT22;13129;48.012;10.352;2023-08-06T21:26:12;11.10;99.90